Time;durP1;ratioP1;P1;durP2;ratioP2;P2;SDS_P1;SDS_P2;PMS_P1;PMS_P2;Temp;Humidity;BMP_temperature;BMP_pressure;BME280_temperature;BME280_humidity;BME280_pressure;Samples;Min_cycle;Max_cycle;Signal;HPM_P1;HPM_P2
2021/09/05 00:00:37;;;;;;;9.05;8.15;;;20.50;99.90;;;;;;5007635;28;20084;-89
2021/09/05 00:03:03;;;;;;;9.60;8.63;;;20.40;99.90;;;;;;4983743;28;20046;-89
2021/09/05 00:05:29;;;;;;;9.95;7.95;;;20.20;99.90;;;;;;4998356;28;20041;-88
2021/09/05 00:07:55;;;;;;;10.40;9.30;;;20.10;99.90;;;;;;4979999;28;20026;-88
2021/09/05 00:10:21;;;;;;;10.35;9.35;;;20.10;99.90;;;;;;4977441;28;20518;-89
2021/09/05 00:12:47;;;;;;;9.73;8.68;;;20.00;99.90;;;;;;4998949;28;20027;-88
2021/09/05 00:15:13;;;;;;;9.32;8.25;;;19.90;99.90;;;;;;4998106;28;20031;-88
2021/09/05 00:17:39;;;;;;;9.40;8.07;;;19.90;99.90;;;;;;4997757;28;20030;-87
2021/09/05 00:20:06;;;;;;;8.90;8.00;;;19.80;99.90;;;;;;4998097;28;20033;-88
2021/09/05 00:22:32;;;;;;;8.25;7.45;;;19.90;99.90;;;;;;4994153;28;20057;-89
2021/09/05 00:24:58;;;;;;;8.45;7.70;;;19.80;99.90;;;;;;4997855;28;20031;-88
2021/09/05 00:27:23;;;;;;;9.02;8.13;;;20.00;99.90;;;;;;4998015;28;20030;-88
2021/09/05 00:29:49;;;;;;;8.57;7.85;;;19.80;99.90;;;;;;4980316;28;20022;-88
2021/09/05 00:32:15;;;;;;;9.00;8.10;;;19.80;99.90;;;;;;4997795;28;20036;-88
2021/09/05 00:34:40;;;;;;;8.73;7.93;;;19.80;99.90;;;;;;4977515;28;20056;-88
2021/09/05 00:37:06;;;;;;;9.13;8.32;;;20.00;99.90;;;;;;4995768;28;20483;-88
2021/09/05 00:39:32;;;;;;;8.75;7.88;;;19.80;99.90;;;;;;5006023;28;20029;-88
2021/09/05 00:41:57;;;;;;;9.05;8.00;;;19.70;99.90;;;;;;5001154;28;20458;-88
2021/09/05 00:44:23;;;;;;;8.90;8.00;;;19.60;99.90;;;;;;4979961;28;20046;-88
2021/09/05 00:46:48;;;;;;;9.98;8.77;;;19.70;99.90;;;;;;4978093;28;20458;-88
2021/09/05 00:49:14;;;;;;;8.98;8.15;;;19.60;99.90;;;;;;4994858;28;20030;-88
2021/09/05 00:51:42;;;;;;;9.13;8.07;;;19.60;99.90;;;;;;5012119;28;20038;-88
2021/09/05 00:54:10;;;;;;;9.93;8.63;;;19.60;99.90;;;;;;4999538;28;20102;-88
2021/09/05 00:56:38;;;;;;;8.90;7.85;;;19.50;99.90;;;;;;4979746;28;20030;-88
2021/09/05 00:59:10;;;;;;;9.30;8.13;;;19.50;99.90;;;;;;4997602;28;20026;-89
2021/09/05 01:01:37;;;;;;;9.40;8.43;;;19.50;99.90;;;;;;4976243;28;20041;-88
2021/09/05 01:04:03;;;;;;;9.10;8.30;;;19.50;99.90;;;;;;4996641;28;20031;-88
2021/09/05 01:06:30;;;;;;;9.25;8.30;;;19.50;99.90;;;;;;4997259;28;20034;-88
2021/09/05 01:08:57;;;;;;;9.55;8.18;;;19.50;99.90;;;;;;4997168;28;20041;-88
2021/09/05 01:11:23;;;;;;;9.52;8.48;;;19.40;99.90;;;;;;4997514;28;20533;-88
2021/09/05 01:13:50;;;;;;;9.05;8.13;;;19.40;99.90;;;;;;4978003;28;20179;-88
2021/09/05 01:16:42;;;;;;;8.35;7.53;;;19.40;99.90;;;;;;4993900;28;20077;-87
2021/09/05 01:19:09;;;;;;;8.57;7.80;;;19.40;99.90;;;;;;5002355;28;20495;-88
2021/09/05 01:21:35;;;;;;;11.00;8.40;;;19.40;99.90;;;;;;4997152;28;20062;-88
2021/09/05 01:24:02;;;;;;;9.23;8.32;;;19.30;99.90;;;;;;4996546;28;20072;-88
2021/09/05 01:26:29;;;;;;;9.35;8.45;;;19.30;99.90;;;;;;4979105;28;20055;-88
2021/09/05 01:28:56;;;;;;;9.13;7.70;;;19.20;99.90;;;;;;5007737;28;20160;-87
2021/09/05 01:31:22;;;;;;;9.10;8.20;;;19.20;99.90;;;;;;4975520;28;20399;-88
2021/09/05 01:33:48;;;;;;;9.45;8.52;;;19.20;99.90;;;;;;4997192;28;20499;-88
2021/09/05 01:36:17;;;;;;;11.82;8.52;;;19.20;99.90;;;;;;4996314;28;20621;-88
2021/09/05 01:38:43;;;;;;;9.52;8.38;;;19.20;99.90;;;;;;4996498;28;20506;-88
2021/09/05 01:41:09;;;;;;;8.55;7.70;;;19.20;99.90;;;;;;4993717;28;20073;-88
2021/09/05 01:43:34;;;;;;;8.98;7.78;;;19.20;99.90;;;;;;5007526;28;20427;-88
2021/09/05 01:46:00;;;;;;;9.52;8.30;;;19.10;99.90;;;;;;4995503;28;20138;-87
2021/09/05 01:48:26;;;;;;;8.98;8.07;;;19.10;99.90;;;;;;4996081;28;20050;-87
2021/09/05 01:50:52;;;;;;;9.82;7.78;;;19.10;99.90;;;;;;4996137;28;20089;-88
2021/09/05 01:53:17;;;;;;;8.10;7.40;;;19.10;99.90;;;;;;4996486;28;20045;-87
2021/09/05 01:55:43;;;;;;;9.30;8.15;;;19.00;99.90;;;;;;4994318;28;20077;-87
2021/09/05 01:58:08;;;;;;;9.32;8.32;;;19.00;99.90;;;;;;4994671;28;20365;-88
2021/09/05 02:00:35;;;;;;;8.90;8.10;;;19.00;99.90;;;;;;4996505;28;20038;-88
2021/09/05 02:03:01;;;;;;;10.02;8.43;;;19.00;99.90;;;;;;4996720;28;20061;-87
2021/09/05 02:05:26;;;;;;;9.20;8.30;;;18.90;99.90;;;;;;4978595;28;20076;-88
2021/09/05 02:07:52;;;;;;;9.15;8.25;;;18.90;99.90;;;;;;4995473;28;20026;-87
2021/09/05 02:10:17;;;;;;;9.50;8.63;;;18.80;99.90;;;;;;4975611;28;20526;-88
2021/09/05 02:12:43;;;;;;;10.05;9.05;;;18.80;99.90;;;;;;4979651;28;20026;-88
2021/09/05 02:15:09;;;;;;;9.73;8.73;;;18.80;99.90;;;;;;4978367;28;20023;-88
2021/09/05 02:17:34;;;;;;;10.07;9.10;;;18.80;99.90;;;;;;4996486;28;20061;-88
2021/09/05 02:20:00;;;;;;;9.77;8.88;;;18.90;99.90;;;;;;4978994;28;20442;-88
2021/09/05 02:22:26;;;;;;;10.85;9.50;;;18.90;99.90;;;;;;4958866;28;20027;-87
2021/09/05 02:24:51;;;;;;;10.13;8.93;;;18.80;99.90;;;;;;4996463;28;20084;-88
2021/09/05 02:27:17;;;;;;;11.10;9.85;;;18.80;99.90;;;;;;4996157;28;20031;-88
2021/09/05 02:29:43;;;;;;;10.50;9.48;;;18.90;99.90;;;;;;4978260;28;20038;-88
2021/09/05 02:32:08;;;;;;;10.45;8.77;;;18.90;99.90;;;;;;4996375;28;20026;-87
2021/09/05 02:34:34;;;;;;;10.43;9.23;;;18.90;99.90;;;;;;4991822;28;20026;-88
2021/09/05 02:37:00;;;;;;;9.90;8.98;;;18.80;99.90;;;;;;5008005;28;20459;-88
2021/09/05 02:39:26;;;;;;;10.30;9.30;;;18.80;99.90;;;;;;4996019;28;20153;-88
2021/09/05 02:41:52;;;;;;;10.77;9.77;;;18.70;99.90;;;;;;4995906;28;20073;-88
2021/09/05 02:44:17;;;;;;;10.23;9.23;;;18.60;99.90;;;;;;4995422;28;20045;-88
2021/09/05 02:46:43;;;;;;;12.27;9.57;;;18.50;99.90;;;;;;4994075;28;20487;-88
2021/09/05 02:49:09;;;;;;;10.02;9.07;;;18.50;99.90;;;;;;4993853;28;20026;-88
2021/09/05 02:51:35;;;;;;;11.93;9.48;;;18.50;99.90;;;;;;4979184;28;20030;-88
2021/09/05 02:54:00;;;;;;;11.23;10.13;;;18.50;99.90;;;;;;4995807;28;20027;-88
2021/09/05 02:56:26;;;;;;;10.50;9.50;;;18.50;99.90;;;;;;4996185;28;20053;-87
2021/09/05 02:58:51;;;;;;;10.30;9.25;;;18.50;99.90;;;;;;4995259;28;20055;-87
2021/09/05 03:01:17;;;;;;;10.90;9.88;;;18.60;99.90;;;;;;4996150;28;20034;-87
2021/09/05 03:03:43;;;;;;;9.88;8.98;;;18.50;99.90;;;;;;5000277;28;20042;-87
2021/09/05 03:06:08;;;;;;;10.05;9.05;;;18.50;99.90;;;;;;4981485;28;20035;-87
2021/09/05 03:08:34;;;;;;;10.43;9.43;;;18.60;99.90;;;;;;4999529;28;20209;-88
2021/09/05 03:10:59;;;;;;;10.43;9.43;;;18.70;99.90;;;;;;4998950;28;20364;-87
2021/09/05 03:13:25;;;;;;;10.07;9.07;;;18.70;99.90;;;;;;4994720;28;20030;-87
2021/09/05 03:15:51;;;;;;;9.77;8.88;;;18.60;99.90;;;;;;4999521;28;20023;-88
2021/09/05 03:18:16;;;;;;;9.98;8.98;;;18.50;99.90;;;;;;4999081;28;20440;-87
2021/09/05 03:20:42;;;;;;;10.13;9.23;;;18.50;99.90;;;;;;4998968;28;20030;-88
2021/09/05 03:23:07;;;;;;;11.65;9.43;;;18.40;99.90;;;;;;4999382;28;20057;-88
2021/09/05 03:25:33;;;;;;;9.60;8.68;;;18.40;99.90;;;;;;4995298;28;20038;-87
2021/09/05 03:27:58;;;;;;;10.63;9.02;;;18.40;99.90;;;;;;4980612;28;20030;-88
2021/09/05 03:30:24;;;;;;;9.30;8.25;;;18.50;99.90;;;;;;4999235;28;20053;-88
2021/09/05 03:32:50;;;;;;;11.57;8.95;;;18.40;99.90;;;;;;4981257;28;20062;-88
2021/09/05 03:35:15;;;;;;;9.30;8.40;;;18.40;99.90;;;;;;4999257;28;20022;-88
2021/09/05 03:37:41;;;;;;;9.35;8.45;;;18.30;99.90;;;;;;4978983;28;20113;-87
2021/09/05 03:40:07;;;;;;;9.35;8.45;;;18.20;99.90;;;;;;4997314;28;20109;-88
2021/09/05 03:42:33;;;;;;;9.05;8.18;;;18.20;99.90;;;;;;4998474;28;20093;-87
2021/09/05 03:44:58;;;;;;;10.27;8.60;;;18.30;99.90;;;;;;4981100;28;20058;-87
2021/09/05 03:47:24;;;;;;;8.65;7.85;;;18.40;99.90;;;;;;4997750;28;20463;-88
2021/09/05 03:49:50;;;;;;;9.90;8.55;;;18.40;99.90;;;;;;4994529;28;20062;-87
2021/09/05 03:52:16;;;;;;;8.55;7.75;;;18.40;99.90;;;;;;4992298;28;20080;-88
2021/09/05 03:54:42;;;;;;;10.27;8.32;;;18.30;99.90;;;;;;4998832;28;20109;-87
2021/09/05 03:57:07;;;;;;;9.20;8.25;;;18.30;99.90;;;;;;4980435;28;20080;-87
2021/09/05 03:59:33;;;;;;;10.25;8.77;;;18.30;99.90;;;;;;4998203;28;20117;-88
2021/09/05 04:01:59;;;;;;;10.13;8.30;;;18.30;99.90;;;;;;4998018;28;20467;-87
2021/09/05 04:04:24;;;;;;;8.82;8.02;;;18.20;99.90;;;;;;4994204;28;20514;-87
2021/09/05 04:07:00;;;;;;;9.15;8.25;;;18.30;99.90;;;;;;4998688;28;20534;-88
2021/09/05 04:12:11;;;;;;;9.65;8.32;;;18.30;99.90;;;;;;4997446;28;20041;-87
2021/09/05 04:14:36;;;;;;;9.45;8.57;;;18.20;99.90;;;;;;4980559;28;20415;-87
2021/09/05 04:17:02;;;;;;;9.95;7.88;;;18.10;99.90;;;;;;4998199;28;20061;-87
2021/09/05 04:19:28;;;;;;;8.65;7.85;;;18.10;99.90;;;;;;5009159;28;20394;-88
2021/09/05 04:21:53;;;;;;;8.63;7.82;;;18.00;99.90;;;;;;4981154;28;20026;-87
2021/09/05 04:24:19;;;;;;;9.43;8.18;;;18.10;99.90;;;;;;4997410;28;20545;-88
2021/09/05 04:26:45;;;;;;;8.45;7.65;;;18.10;99.90;;;;;;4997847;28;20033;-88
2021/09/05 04:29:11;;;;;;;11.13;8.20;;;18.10;99.90;;;;;;4997692;28;20123;-87
2021/09/05 04:31:37;;;;;;;9.02;8.23;;;17.90;99.90;;;;;;4994459;28;20022;-87
2021/09/05 04:34:02;;;;;;;10.00;7.85;;;18.00;99.90;;;;;;4996932;28;20030;-87
2021/09/05 04:36:28;;;;;;;8.85;7.57;;;17.90;99.90;;;;;;4998305;28;20040;-88
2021/09/05 04:38:53;;;;;;;9.02;8.07;;;17.80;99.90;;;;;;4979710;28;20033;-87
2021/09/05 04:41:19;;;;;;;8.85;8.00;;;17.80;99.90;;;;;;4997595;28;20593;-87
2021/09/05 04:43:45;;;;;;;9.38;8.25;;;17.80;99.90;;;;;;4995244;28;20058;-87
2021/09/05 04:46:10;;;;;;;8.13;7.45;;;17.80;99.90;;;;;;4995566;28;20414;-88
2021/09/05 04:48:36;;;;;;;10.95;8.57;;;17.90;99.90;;;;;;4997679;28;20061;-88
2021/09/05 04:51:01;;;;;;;8.60;7.60;;;17.80;99.90;;;;;;4997696;28;20443;-87
2021/09/05 04:53:27;;;;;;;9.48;8.48;;;17.80;99.90;;;;;;4997021;28;20034;-87
2021/09/05 04:55:52;;;;;;;9.73;8.50;;;17.70;99.90;;;;;;4996085;28;20048;-87
2021/09/05 04:58:18;;;;;;;11.05;8.25;;;17.70;99.90;;;;;;4976819;28;20046;-87
2021/09/05 05:00:44;;;;;;;9.18;8.27;;;17.70;99.90;;;;;;4997952;28;20400;-88
2021/09/05 05:03:09;;;;;;;8.85;7.82;;;17.60;99.90;;;;;;4997109;28;20030;-87
2021/09/05 05:05:36;;;;;;;9.00;8.15;;;17.60;99.90;;;;;;4997057;28;20049;-88
2021/09/05 05:08:02;;;;;;;9.18;8.23;;;17.50;99.90;;;;;;4996738;28;20022;-87
2021/09/05 05:10:28;;;;;;;9.40;8.23;;;17.50;99.90;;;;;;4975359;28;20402;-88
2021/09/05 05:12:53;;;;;;;9.90;8.90;;;17.50;99.90;;;;;;4997808;28;20081;-87
2021/09/05 05:15:19;;;;;;;9.00;8.15;;;17.70;99.90;;;;;;4996799;28;20527;-87
2021/09/05 05:17:45;;;;;;;9.38;7.65;;;17.60;99.90;;;;;;4997232;28;20503;-87
2021/09/05 05:20:12;;;;;;;8.63;7.63;;;17.70;99.90;;;;;;4979124;28;20065;-88
2021/09/05 05:22:38;;;;;;;9.35;8.15;;;17.70;99.90;;;;;;4993866;28;20049;-88
2021/09/05 05:25:05;;;;;;;8.65;7.85;;;17.80;99.90;;;;;;4995561;28;20073;-88
2021/09/05 05:27:31;;;;;;;9.02;8.13;;;17.80;99.90;;;;;;4995904;28;20113;-87
2021/09/05 05:29:56;;;;;;;9.93;7.97;;;17.80;99.90;;;;;;4996836;28;20457;-87
2021/09/05 05:32:22;;;;;;;9.70;8.35;;;17.90;99.90;;;;;;4996866;28;20022;-87
2021/09/05 05:34:47;;;;;;;8.98;7.85;;;17.90;99.90;;;;;;4994876;28;20092;-87
2021/09/05 05:37:14;;;;;;;9.70;8.63;;;17.90;99.90;;;;;;4993954;28;20466;-88
2021/09/05 05:39:40;;;;;;;9.25;8.35;;;18.00;99.90;;;;;;4997327;28;20442;-87
2021/09/05 05:42:06;;;;;;;9.82;8.63;;;18.10;99.90;;;;;;4996502;28;20036;-87
2021/09/05 05:44:31;;;;;;;9.90;8.25;;;18.00;99.90;;;;;;4978744;28;20443;-88
2021/09/05 05:46:57;;;;;;;9.23;8.32;;;18.00;99.90;;;;;;4995598;28;20076;-87
2021/09/05 05:49:22;;;;;;;10.10;9.10;;;18.00;99.90;;;;;;4992567;28;20027;-87
2021/09/05 05:51:48;;;;;;;9.50;8.60;;;18.10;99.90;;;;;;4996671;28;20026;-87
2021/09/05 05:54:15;;;;;;;9.07;8.20;;;18.10;99.90;;;;;;4979483;28;20034;-87
2021/09/05 05:56:42;;;;;;;9.52;8.52;;;18.30;99.90;;;;;;4978454;28;20114;-87
2021/09/05 05:59:08;;;;;;;9.38;8.32;;;18.30;99.90;;;;;;4996234;28;20469;-88
2021/09/05 06:01:33;;;;;;;9.38;8.48;;;18.30;99.90;;;;;;4993061;28;20049;-87
2021/09/05 06:03:59;;;;;;;9.02;8.23;;;18.30;99.90;;;;;;4995759;28;20117;-87
2021/09/05 06:06:25;;;;;;;9.00;8.20;;;18.40;99.90;;;;;;4996385;28;20479;-87
2021/09/05 06:08:50;;;;;;;10.40;8.88;;;18.20;99.90;;;;;;4996278;28;20031;-88
2021/09/05 06:11:16;;;;;;;10.07;8.68;;;18.30;99.90;;;;;;4995978;28;20053;-87
2021/09/05 06:13:42;;;;;;;9.63;8.27;;;18.30;99.90;;;;;;4976191;28;20038;-87
2021/09/05 06:16:07;;;;;;;9.77;8.60;;;18.30;99.90;;;;;;4994992;28;20033;-87
2021/09/05 06:18:33;;;;;;;9.52;8.52;;;18.40;99.90;;;;;;4996656;28;20034;-87
2021/09/05 06:20:59;;;;;;;10.00;9.00;;;18.40;99.90;;;;;;4999299;28;20061;-87
2021/09/05 06:23:24;;;;;;;8.98;8.05;;;18.50;99.90;;;;;;5004116;28;20030;-87
2021/09/05 06:25:50;;;;;;;8.70;7.90;;;18.50;99.90;;;;;;4994460;28;20041;-87
2021/09/05 06:28:15;;;;;;;8.80;7.95;;;18.60;99.90;;;;;;4993357;28;20031;-87
2021/09/05 06:30:41;;;;;;;9.85;8.15;;;18.70;99.90;;;;;;4996927;28;20033;-87
2021/09/05 06:33:07;;;;;;;8.85;8.00;;;18.80;99.90;;;;;;4978554;28;20026;-87
2021/09/05 06:35:32;;;;;;;9.25;7.82;;;18.80;99.90;;;;;;4982093;28;20038;-87
2021/09/05 06:37:58;;;;;;;8.88;7.85;;;18.80;99.90;;;;;;4995520;28;20085;-87
2021/09/05 06:40:24;;;;;;;10.90;8.25;;;18.90;99.90;;;;;;5011270;28;20022;-86
2021/09/05 06:42:49;;;;;;;9.25;7.68;;;19.00;99.90;;;;;;5000344;28;20437;-87
2021/09/05 06:45:15;;;;;;;11.07;8.70;;;19.10;99.90;;;;;;4999815;28;20119;-87
2021/09/05 06:47:40;;;;;;;9.40;8.35;;;19.20;99.90;;;;;;4999383;28;20031;-88
2021/09/05 06:50:07;;;;;;;8.55;7.65;;;19.20;99.90;;;;;;4981872;28;20034;-87
2021/09/05 06:52:32;;;;;;;9.23;7.93;;;19.30;99.90;;;;;;4978176;28;20034;-88
2021/09/05 06:54:58;;;;;;;8.38;7.68;;;19.30;99.90;;;;;;4999939;28;20507;-87
2021/09/05 06:57:24;;;;;;;9.02;8.02;;;19.40;99.90;;;;;;5011169;28;20041;-87
2021/09/05 06:59:50;;;;;;;8.68;7.75;;;19.40;99.90;;;;;;5003923;28;20034;-87
2021/09/05 07:02:17;;;;;;;8.75;7.95;;;19.40;99.90;;;;;;4981706;28;20026;-87
2021/09/05 07:04:44;;;;;;;10.35;8.57;;;19.40;99.90;;;;;;4996517;28;20499;-87
2021/09/05 07:07:09;;;;;;;9.45;8.30;;;19.50;99.90;;;;;;5013408;28;20053;-87
2021/09/05 07:09:35;;;;;;;8.40;7.60;;;19.70;99.90;;;;;;4999673;28;20080;-88
2021/09/05 07:12:00;;;;;;;9.02;8.13;;;19.80;99.90;;;;;;4999241;28;20026;-87
2021/09/05 07:14:26;;;;;;;8.70;7.80;;;19.80;99.90;;;;;;4999288;28;20084;-87
2021/09/05 07:16:51;;;;;;;9.27;7.97;;;19.90;99.90;;;;;;4997800;28;20026;-87
2021/09/05 07:19:17;;;;;;;8.82;8.00;;;20.10;99.90;;;;;;4995382;28;20121;-87
2021/09/05 07:21:43;;;;;;;8.38;7.25;;;20.00;99.90;;;;;;4999096;28;20049;-88
2021/09/05 07:24:08;;;;;;;8.68;7.65;;;20.20;99.90;;;;;;4998970;28;20030;-87
2021/09/05 07:26:36;;;;;;;8.27;7.47;;;20.30;99.90;;;;;;4981048;28;20042;-87
2021/09/05 07:29:02;;;;;;;7.72;7.03;;;20.40;99.90;;;;;;4981185;28;20030;-87
2021/09/05 07:31:27;;;;;;;7.78;7.07;;;20.50;99.90;;;;;;4994437;28;20479;-87
2021/09/05 07:33:53;;;;;;;8.27;7.45;;;20.60;99.90;;;;;;4998768;28;20033;-87
2021/09/05 07:36:19;;;;;;;8.90;7.60;;;20.70;99.90;;;;;;4981471;28;20038;-87
2021/09/05 07:38:44;;;;;;;8.70;7.90;;;20.80;99.90;;;;;;4998691;28;20026;-87
2021/09/05 07:41:10;;;;;;;10.02;7.57;;;20.80;99.90;;;;;;4981250;28;20026;-87
2021/09/05 07:43:36;;;;;;;8.77;7.55;;;20.80;99.90;;;;;;4994897;28;20034;-87
2021/09/05 07:46:01;;;;;;;8.40;7.60;;;20.80;99.90;;;;;;4996388;28;20034;-87
2021/09/05 07:48:27;;;;;;;8.20;7.35;;;21.00;99.90;;;;;;4998845;28;20026;-87
2021/09/05 07:50:53;;;;;;;7.97;7.18;;;21.10;99.90;;;;;;4998521;28;20041;-87
2021/09/05 07:53:18;;;;;;;8.30;7.38;;;21.20;99.90;;;;;;4998485;28;20076;-87
2021/09/05 07:55:44;;;;;;;8.43;7.50;;;21.30;99.90;;;;;;4995813;28;20499;-88
2021/09/05 07:58:09;;;;;;;7.50;6.80;;;21.30;99.90;;;;;;4996637;28;20034;-87
2021/09/05 08:00:35;;;;;;;7.70;7.00;;;21.50;99.90;;;;;;4998963;28;20546;-88
2021/09/05 08:03:01;;;;;;;7.28;6.68;;;21.60;99.90;;;;;;4980320;28;20030;-88
2021/09/05 08:05:26;;;;;;;7.63;6.93;;;21.70;99.90;;;;;;4997953;28;20117;-87
2021/09/05 08:07:52;;;;;;;8.85;7.07;;;21.70;99.90;;;;;;4997294;28;20459;-87
2021/09/05 08:10:18;;;;;;;8.27;7.50;;;21.80;99.90;;;;;;4994882;28;20547;-88
2021/09/05 08:12:43;;;;;;;8.18;6.82;;;22.10;99.90;;;;;;4998684;28;20081;-88
2021/09/05 08:15:09;;;;;;;7.72;7.03;;;22.10;99.90;;;;;;4980896;28;20030;-87
2021/09/05 08:17:35;;;;;;;8.35;6.00;;;22.20;99.90;;;;;;4997938;28;20049;-87
2021/09/05 08:20:00;;;;;;;7.07;6.43;;;22.20;99.90;;;;;;4980914;28;20030;-88
2021/09/05 08:22:26;;;;;;;7.80;7.00;;;22.20;99.90;;;;;;4993607;28;20030;-87
2021/09/05 08:24:51;;;;;;;7.60;6.90;;;22.40;99.90;;;;;;4998064;28;20065;-88
2021/09/05 08:27:17;;;;;;;7.50;6.80;;;22.40;99.90;;;;;;4998147;28;20031;-88
2021/09/05 08:29:43;;;;;;;7.80;6.63;;;22.50;99.90;;;;;;4997938;28;20026;-88
2021/09/05 08:32:08;;;;;;;8.13;7.32;;;22.70;99.90;;;;;;4997283;28;20030;-88
2021/09/05 08:34:34;;;;;;;7.70;7.03;;;22.80;99.90;;;;;;4994068;28;20027;-88
2021/09/05 08:37:06;;;;;;;7.70;6.60;;;22.80;99.90;;;;;;4979990;28;20033;-88
2021/09/05 08:39:32;;;;;;;7.50;6.78;;;22.80;99.90;;;;;;4998243;28;20058;-88
2021/09/05 08:41:58;;;;;;;7.55;6.93;;;22.90;99.90;;;;;;4980455;28;20158;-88
2021/09/05 08:44:25;;;;;;;9.38;6.80;;;23.10;99.90;;;;;;4997127;28;20053;-88
2021/09/05 08:46:55;;;;;;;7.85;6.47;;;23.10;99.90;;;;;;4995659;28;20089;-89
2021/09/05 08:49:32;;;;;;;8.00;7.03;;;23.10;99.90;;;;;;4993966;28;20030;-88
2021/09/05 08:51:57;;;;;;;7.05;6.45;;;23.30;99.90;;;;;;4974605;28;20031;-88
2021/09/05 08:54:24;;;;;;;8.43;7.32;;;23.50;99.90;;;;;;4997604;28;20027;-88
2021/09/05 08:56:53;;;;;;;7.38;6.65;;;23.50;99.90;;;;;;4997003;28;20034;-88
2021/09/05 08:59:20;;;;;;;7.53;6.82;;;23.50;99.90;;;;;;4997537;28;20029;-88
2021/09/05 09:01:54;;;;;;;7.38;6.68;;;23.50;99.90;;;;;;4994589;28;20061;-88
2021/09/05 09:04:20;;;;;;;7.88;6.85;;;23.80;99.90;;;;;;4976399;28;20038;-88
2021/09/05 09:06:45;;;;;;;8.65;6.68;;;23.90;99.90;;;;;;4980089;28;20562;-88
2021/09/05 09:09:11;;;;;;;7.55;6.78;;;24.10;99.90;;;;;;4980099;28;20117;-89
2021/09/05 09:11:57;;;;;;;7.60;6.90;;;23.80;99.90;;;;;;4979809;28;20041;-88
2021/09/05 09:14:38;;;;;;;7.28;6.45;;;24.10;99.90;;;;;;4996743;28;20141;-88
2021/09/05 09:17:04;;;;;;;7.88;6.55;;;24.30;99.90;;;;;;4997350;28;20026;-88
2021/09/05 09:19:29;;;;;;;7.20;6.40;;;24.50;99.90;;;;;;4992487;28;20034;-88
2021/09/05 09:21:56;;;;;;;7.38;6.68;;;24.40;99.90;;;;;;5004296;28;20363;-88
2021/09/05 09:24:23;;;;;;;7.65;6.88;;;24.40;99.90;;;;;;4997031;28;20041;-89
2021/09/05 09:27:03;;;;;;;8.52;6.35;;;24.30;99.90;;;;;;4997136;28;20404;-88
2021/09/05 09:29:30;;;;;;;8.40;7.57;;;24.30;99.90;;;;;;4996897;28;20157;-89
2021/09/05 09:32:02;;;;;;;7.22;6.60;;;24.30;99.90;;;;;;4996424;28;20037;-88
2021/09/05 09:34:28;;;;;;;7.18;6.45;;;24.50;99.90;;;;;;4960045;28;20030;-88
2021/09/05 09:36:56;;;;;;;7.95;7.15;;;24.80;99.90;;;;;;4997494;28;20030;-88
2021/09/05 09:39:22;;;;;;;7.88;6.25;;;25.00;99.90;;;;;;4996269;28;20739;-89
2021/09/05 09:41:47;;;;;;;8.38;6.55;;;25.20;99.90;;;;;;4996739;28;20107;-89
2021/09/05 09:44:14;;;;;;;6.25;5.65;;;25.60;99.90;;;;;;4996406;28;20046;-89
2021/09/05 09:46:44;;;;;;;6.93;6.25;;;25.90;99.90;;;;;;4993841;28;20125;-90
2021/09/05 09:49:14;;;;;;;6.40;5.80;;;27.30;99.90;;;;;;4977664;28;20026;-89
2021/09/05 09:51:40;;;;;;;6.03;5.47;;;31.20;99.90;;;;;;4995465;28;20503;-90
2021/09/05 09:54:07;;;;;;;6.68;6.03;;;35.20;99.90;;;;;;4997171;28;20053;-90
2021/09/05 09:56:33;;;;;;;10.27;6.05;;;37.10;94.00;;;;;;4996757;28;20037;-90
2021/09/05 09:59:02;;;;;;;7.10;6.40;;;39.40;91.20;;;;;;4978813;28;20072;-90
2021/09/05 10:01:29;;;;;;;7.22;6.05;;;40.50;85.60;;;;;;5008724;28;20030;-90
2021/09/05 10:03:57;;;;;;;8.40;6.10;;;40.90;79.80;;;;;;4997152;28;20034;-90
2021/09/05 10:06:28;;;;;;;7.43;5.75;;;40.70;78.20;;;;;;4996730;28;20113;-91
2021/09/05 10:09:02;;;;;;;5.57;5.10;;;41.30;76.20;;;;;;4980585;28;20027;-91
2021/09/05 10:11:28;;;;;;;6.15;5.65;;;42.40;72.80;;;;;;5001454;28;20053;-91
2021/09/05 10:13:57;;;;;;;5.85;5.28;;;43.10;63.50;;;;;;4999348;28;20018;-91
2021/09/05 10:16:24;;;;;;;6.22;5.65;;;44.40;57.80;;;;;;4997015;28;20511;-90
2021/09/05 10:18:51;;;;;;;5.75;5.25;;;45.10;51.80;;;;;;5001448;28;20026;-91
2021/09/05 10:21:19;;;;;;;6.38;5.78;;;45.20;51.50;;;;;;4983439;28;20048;-91
2021/09/05 10:23:51;;;;;;;6.07;5.57;;;45.50;48.50;;;;;;5000579;28;20041;-91
2021/09/05 10:26:18;;;;;;;7.68;6.30;;;45.00;49.20;;;;;;5000387;28;20132;-91
2021/09/05 10:28:49;;;;;;;6.10;5.60;;;44.40;47.80;;;;;;4997708;28;20565;-90
2021/09/05 10:31:26;;;;;;;6.18;5.57;;;44.50;49.30;;;;;;4980265;28;20037;-91
2021/09/05 10:33:53;;;;;;;5.90;5.40;;;44.00;49.20;;;;;;5000706;28;20018;-91
2021/09/05 10:36:21;;;;;;;5.80;5.30;;;44.70;45.90;;;;;;5000427;28;20038;-91
2021/09/05 10:38:47;;;;;;;6.38;5.63;;;45.20;44.90;;;;;;5000024;28;20407;-91
2021/09/05 10:41:14;;;;;;;6.50;5.78;;;44.50;40.50;;;;;;4999923;28;20116;-91
2021/09/05 10:43:49;;;;;;;5.75;5.25;;;44.40;42.10;;;;;;4997365;28;20496;-91
2021/09/05 10:46:23;;;;;;;6.03;5.53;;;45.70;39.70;;;;;;4980264;28;20466;-91
2021/09/05 10:48:57;;;;;;;6.85;6.18;;;45.60;40.70;;;;;;5000462;28;20399;-91
2021/09/05 10:51:25;;;;;;;5.60;5.20;;;44.70;43.10;;;;;;4999762;28;20058;-91
2021/09/05 10:53:55;;;;;;;5.60;5.20;;;45.30;40.10;;;;;;4999886;28;20402;-91
2021/09/05 10:56:22;;;;;;;5.82;5.32;;;46.30;36.60;;;;;;4999296;28;20069;-91
2021/09/05 10:58:55;;;;;;;5.68;5.18;;;46.80;34.90;;;;;;4997511;28;20097;-90
2021/09/05 11:01:36;;;;;;;6.15;5.60;;;45.70;39.80;;;;;;4978679;28;20038;-91
2021/09/05 11:04:10;;;;;;;5.35;4.93;;;46.10;37.50;;;;;;5007749;28;20109;-90
2021/09/05 11:06:41;;;;;;;5.53;5.05;;;47.10;31.80;;;;;;4999604;28;20365;-91
2021/09/05 11:09:22;;;;;;;5.90;5.40;;;47.60;31.80;;;;;;4982569;28;20113;-91
2021/09/05 11:12:08;;;;;;;6.07;5.57;;;47.10;32.30;;;;;;5001228;28;20490;-91
2021/09/05 11:14:37;;;;;;;6.50;5.90;;;46.50;30.80;;;;;;5006496;28;20026;-91
2021/09/05 11:17:09;;;;;;;6.18;5.13;;;47.00;30.30;;;;;;4981651;28;20041;-92
2021/09/05 11:19:36;;;;;;;6.30;5.38;;;46.50;30.00;;;;;;4995833;28;20081;-91
2021/09/05 11:22:06;;;;;;;6.40;5.35;;;46.80;30.40;;;;;;4999628;28;20029;-90
2021/09/05 11:24:31;;;;;;;6.25;5.20;;;45.70;33.40;;;;;;4980706;28;20446;-92
2021/09/05 11:27:05;;;;;;;5.22;4.82;;;46.20;28.70;;;;;;4999474;28;20026;-91
2021/09/05 11:29:32;;;;;;;5.90;5.13;;;46.50;31.50;;;;;;4981772;28;20034;-91
2021/09/05 11:32:12;;;;;;;6.20;5.60;;;46.30;30.20;;;;;;4998861;28;20018;-91
2021/09/05 11:34:39;;;;;;;5.75;5.15;;;46.50;30.60;;;;;;4964540;28;20408;-92
2021/09/05 11:37:05;;;;;;;5.53;5.03;;;47.00;28.50;;;;;;4981107;28;20045;-92
2021/09/05 11:39:31;;;;;;;6.15;5.28;;;47.50;24.30;;;;;;4999080;28;20041;-92
2021/09/05 11:42:02;;;;;;;6.80;5.63;;;46.60;24.50;;;;;;4981499;28;20038;-92
2021/09/05 11:44:36;;;;;;;5.47;5.00;;;47.80;33.80;;;;;;4981143;28;20122;-92
2021/09/05 11:47:14;;;;;;;5.13;4.72;;;48.10;25.00;;;;;;4998899;28;20030;-92
2021/09/05 11:49:50;;;;;;;5.43;4.97;;;46.90;25.70;;;;;;5010333;28;20486;-92
2021/09/05 11:52:23;;;;;;;5.82;5.20;;;47.80;23.60;;;;;;4996262;28;20023;-92
2021/09/05 11:55:03;;;;;;;5.93;5.20;;;47.80;23.80;;;;;;4999074;28;20050;-91
2021/09/05 11:57:30;;;;;;;5.05;4.65;;;48.50;24.40;;;;;;4999034;28;20031;-92
2021/09/05 11:59:57;;;;;;;5.32;4.93;;;48.50;24.10;;;;;;4999015;28;20030;-92
2021/09/05 12:02:40;;;;;;;5.55;5.05;;;47.40;26.20;;;;;;4998523;28;20045;-93
2021/09/05 12:05:07;;;;;;;5.15;4.75;;;45.80;28.30;;;;;;4998650;28;20042;-91
2021/09/05 12:07:37;;;;;;;5.68;5.20;;;45.10;29.70;;;;;;4995565;28;20053;-92
2021/09/05 12:10:10;;;;;;;6.28;5.45;;;47.00;27.00;;;;;;4980274;28;20081;-92
2021/09/05 12:12:38;;;;;;;5.40;4.90;;;42.90;30.20;;;;;;4998722;28;20037;-92
2021/09/05 12:15:31;;;;;;;5.60;5.10;;;44.70;33.20;;;;;;4998277;28;20065;-93
2021/09/05 12:17:57;;;;;;;5.53;4.90;;;45.30;30.40;;;;;;4977314;28;20035;-93
2021/09/05 12:20:24;;;;;;;4.82;4.53;;;46.60;23.20;;;;;;4981663;28;20129;-92
2021/09/05 12:22:55;;;;;;;5.10;4.70;;;46.60;24.40;;;;;;4996320;28;20121;-93
2021/09/05 12:25:34;;;;;;;5.03;4.63;;;47.00;25.30;;;;;;4995122;28;20097;-93
2021/09/05 12:28:05;;;;;;;5.38;4.88;;;46.30;27.30;;;;;;4989384;28;20552;-93
2021/09/05 12:30:36;;;;;;;5.30;4.85;;;46.60;26.20;;;;;;5006035;28;20105;-92
2021/09/05 12:33:12;;;;;;;4.95;4.53;;;46.30;26.20;;;;;;5000732;28;20065;-91
2021/09/05 12:35:41;;;;;;;5.20;4.80;;;45.80;28.60;;;;;;4998131;28;20026;-92
2021/09/05 12:38:34;;;;;;;4.97;4.50;;;46.50;27.80;;;;;;4997804;28;20029;-93
2021/09/05 12:41:13;;;;;;;5.68;4.93;;;46.90;32.90;;;;;;4993781;28;20545;-93
2021/09/05 12:43:46;;;;;;;4.95;4.55;;;47.20;24.60;;;;;;4980802;28;20093;-92
2021/09/05 12:46:13;;;;;;;4.93;4.43;;;48.00;23.30;;;;;;4996238;28;20038;-94
2021/09/05 12:48:42;;;;;;;4.80;4.47;;;46.90;25.60;;;;;;4980962;28;20022;-92